Time;durP1;ratioP1;P1;durP2;ratioP2;P2;SDS_P1;SDS_P2;PMS_P1;PMS_P2;Temp;Humidity;BMP_temperature;BMP_pressure;BME280_temperature;BME280_humidity;BME280_pressure;Samples;Min_cycle;Max_cycle;Signal;HPM_P1;HPM_P2
2023/10/23 00:02:24;;;;;;;6.47;5.28;;;;;;;;;;6188641;23;20086;-83
2023/10/23 00:04:56;;;;;;;6.85;5.30;;;;;;;;;;6164111;23;20107;-84
2023/10/23 00:07:23;;;;;;;8.75;5.55;;;;;;;;;;6163062;23;20338;-84
2023/10/23 00:09:51;;;;;;;6.47;5.32;;;;;;;;;;6187794;23;20523;-83
2023/10/23 00:12:20;;;;;;;8.27;5.35;;;;;;;;;;6188921;23;20043;-84
2023/10/23 00:14:47;;;;;;;7.63;5.25;;;;;;;;;;6185015;23;20023;-83
2023/10/23 00:17:16;;;;;;;6.22;5.10;;;;;;;;;;6163813;23;20033;-84
2023/10/23 00:19:43;;;;;;;8.43;5.57;;;;;;;;;;6214047;23;20017;-83
2023/10/23 00:22:09;;;;;;;9.52;5.30;;;;;;;;;;6164941;23;20020;-83
2023/10/23 00:24:41;;;;;;;7.85;5.65;;;;;;;;;;6222728;23;20020;-84
2023/10/23 00:27:07;;;;;;;9.48;5.57;;;;;;;;;;6194395;23;20106;-83
2023/10/23 00:29:40;;;;;;;10.15;6.00;;;;;;;;;;6247401;23;20110;-83
2023/10/23 00:32:10;;;;;;;7.18;5.32;;;;;;;;;;6221955;23;20111;-84
2023/10/23 00:34:36;;;;;;;9.57;6.22;;;;;;;;;;6217084;23;20024;-84
2023/10/23 00:37:06;;;;;;;6.95;5.45;;;;;;;;;;6247646;23;20016;-83
2023/10/23 00:39:32;;;;;;;7.50;6.05;;;;;;;;;;6195061;23;20022;-83
2023/10/23 00:42:13;;;;;;;8.15;5.78;;;;;;;;;;6195593;23;20020;-83
2023/10/23 00:44:40;;;;;;;9.32;6.00;;;;;;;;;;6194709;23;20031;-84
2023/10/23 00:47:11;;;;;;;9.32;6.28;;;;;;;;;;6218417;23;20425;-83
2023/10/23 00:49:38;;;;;;;9.75;6.10;;;;;;;;;;6219518;23;20412;-84
2023/10/23 00:52:06;;;;;;;7.90;5.90;;;;;;;;;;6220249;23;20063;-84
2023/10/23 00:54:34;;;;;;;9.13;5.72;;;;;;;;;;6195216;23;20012;-83
2023/10/23 00:57:01;;;;;;;10.18;6.65;;;;;;;;;;6194195;23;20016;-83
2023/10/23 00:59:30;;;;;;;11.30;6.68;;;;;;;;;;6246295;23;20351;-83
2023/10/23 01:01:59;;;;;;;9.40;6.50;;;;;;;;;;6220685;23;20016;-83
2023/10/23 01:04:34;;;;;;;7.40;5.90;;;;;;;;;;6196681;23;20363;-84
2023/10/23 01:07:01;;;;;;;8.80;6.47;;;;;;;;;;6219836;23;20023;-83
2023/10/23 01:09:28;;;;;;;9.07;6.93;;;;;;;;;;6218626;23;20016;-84
2023/10/23 01:11:54;;;;;;;10.40;7.00;;;;;;;;;;6194080;23;20075;-84
2023/10/23 01:14:20;;;;;;;9.02;7.10;;;;;;;;;;6195526;23;20020;-84
2023/10/23 01:16:57;;;;;;;8.27;6.53;;;;;;;;;;6219702;23;20395;-84
2023/10/23 01:19:23;;;;;;;11.90;7.22;;;;;;;;;;6194336;23;20044;-83
2023/10/23 01:21:52;;;;;;;8.73;6.40;;;;;;;;;;6196353;23;20020;-84
2023/10/23 01:24:19;;;;;;;11.10;7.32;;;;;;;;;;6194506;23;20024;-83
2023/10/23 01:26:45;;;;;;;10.85;7.43;;;;;;;;;;6247285;23;20035;-84
2023/10/23 01:29:12;;;;;;;10.23;7.45;;;;;;;;;;6218368;23;20016;-83
2023/10/23 01:31:38;;;;;;;10.95;7.78;;;;;;;;;;6194617;23;20445;-83
2023/10/23 01:34:04;;;;;;;10.75;7.75;;;;;;;;;;6219167;23;20012;-83
2023/10/23 01:36:32;;;;;;;8.93;7.55;;;;;;;;;;6218273;23;20046;-84
2023/10/23 01:38:58;;;;;;;11.32;7.82;;;;;;;;;;6220631;23;20119;-83
2023/10/23 01:41:24;;;;;;;16.00;8.43;;;;;;;;;;6194256;23;20030;-84
2023/10/23 01:43:53;;;;;;;10.82;8.52;;;;;;;;;;6219887;23;20016;-83
2023/10/23 01:46:22;;;;;;;11.60;8.60;;;;;;;;;;6219800;23;20330;-83
2023/10/23 01:49:07;;;;;;;9.00;7.47;;;;;;;;;;6169499;23;20031;-83
2023/10/23 01:51:37;;;;;;;16.17;9.45;;;;;;;;;;6246116;23;20020;-83
2023/10/23 01:54:29;;;;;;;10.95;8.93;;;;;;;;;;6245751;23;20023;-83
2023/10/23 01:56:56;;;;;;;14.57;9.52;;;;;;;;;;6217127;23;20091;-83
2023/10/23 01:59:24;;;;;;;13.70;9.18;;;;;;;;;;6219148;23;20081;-84
2023/10/23 02:01:51;;;;;;;13.70;9.77;;;;;;;;;;6194422;23;20449;-83
2023/10/23 02:04:32;;;;;;;15.25;10.75;;;;;;;;;;6199998;23;20027;-83
2023/10/23 02:07:08;;;;;;;15.40;10.93;;;;;;;;;;6196943;23;20023;-83
2023/10/23 02:09:37;;;;;;;14.32;10.52;;;;;;;;;;6193087;23;20016;-83
2023/10/23 02:12:07;;;;;;;14.35;10.50;;;;;;;;;;6194218;23;20444;-83
2023/10/23 02:14:35;;;;;;;15.32;11.30;;;;;;;;;;6246605;23;20059;-83
2023/10/23 02:17:04;;;;;;;15.32;11.88;;;;;;;;;;6212766;23;20408;-83
2023/10/23 02:19:33;;;;;;;15.40;11.20;;;;;;;;;;6195381;23;20321;-83
2023/10/23 02:22:03;;;;;;;15.40;12.15;;;;;;;;;;6220476;23;20042;-84
2023/10/23 02:24:32;;;;;;;18.75;12.40;;;;;;;;;;6196482;23;20015;-83
2023/10/23 02:27:04;;;;;;;14.57;12.40;;;;;;;;;;6245724;23;20032;-84
2023/10/23 02:29:33;;;;;;;15.88;12.35;;;;;;;;;;6219652;23;20027;-83
2023/10/23 02:32:03;;;;;;;17.00;13.18;;;;;;;;;;6194839;23;20078;-84
2023/10/23 02:34:30;;;;;;;19.67;13.48;;;;;;;;;;6193866;23;20017;-84
2023/10/23 02:36:59;;;;;;;18.63;13.50;;;;;;;;;;6219640;23;20016;-84
2023/10/23 02:39:25;;;;;;;18.55;13.55;;;;;;;;;;6193731;23;20024;-84
2023/10/23 02:41:52;;;;;;;18.38;14.02;;;;;;;;;;6218326;23;20092;-84
2023/10/23 02:44:18;;;;;;;20.33;14.27;;;;;;;;;;6194013;23;20017;-84
2023/10/23 02:46:46;;;;;;;19.75;14.07;;;;;;;;;;6194321;23;20459;-84
2023/10/23 02:49:31;;;;;;;;;;;;;;;;;;6246772;23;20030;-85
2023/10/23 02:52:17;;;;;;;20.73;14.52;;;;;;;;;;6246571;23;19916;-84
2023/10/23 02:54:44;;;;;;;21.52;14.45;;;;;;;;;;6218675;23;20016;-84
2023/10/23 02:57:11;;;;;;;22.15;13.68;;;;;;;;;;6193816;23;20016;-85
2023/10/23 02:59:46;;;;;;;20.50;14.85;;;;;;;;;;6192893;23;20024;-85
2023/10/23 03:02:13;;;;;;;22.70;14.40;;;;;;;;;;6216633;23;20020;-85
2023/10/23 03:04:43;;;;;;;22.38;15.43;;;;;;;;;;6246628;23;20042;-85
2023/10/23 03:07:10;;;;;;;21.88;15.27;;;;;;;;;;6219640;23;20326;-85
2023/10/23 03:09:36;;;;;;;22.88;15.27;;;;;;;;;;6219988;23;20023;-85
2023/10/23 03:12:05;;;;;;;21.25;15.05;;;;;;;;;;6246836;23;20020;-85
2023/10/23 03:14:40;;;;;;;23.48;15.57;;;;;;;;;;6220693;23;20016;-85
2023/10/23 03:17:09;;;;;;;21.48;15.05;;;;;;;;;;6194503;23;20078;-85
2023/10/23 03:19:37;;;;;;;24.13;15.65;;;;;;;;;;6218915;23;20515;-85
2023/10/23 03:22:04;;;;;;;23.67;16.27;;;;;;;;;;6194836;23;20074;-85
2023/10/23 03:24:30;;;;;;;24.48;16.42;;;;;;;;;;6196093;23;20035;-84
2023/10/23 03:26:57;;;;;;;25.55;16.60;;;;;;;;;;6219747;23;20147;-84
2023/10/23 03:29:27;;;;;;;24.98;15.57;;;;;;;;;;6219437;23;20042;-84
2023/10/23 03:32:18;;;;;;;27.27;15.63;;;;;;;;;;6218887;23;20028;-85
2023/10/23 03:34:53;;;;;;;24.10;15.70;;;;;;;;;;6222215;23;20098;-84
2023/10/23 03:37:25;;;;;;;27.83;16.42;;;;;;;;;;6194663;23;20023;-85
2023/10/23 03:39:55;;;;;;;23.58;16.33;;;;;;;;;;6220138;23;20398;-85
2023/10/23 03:42:25;;;;;;;23.52;15.45;;;;;;;;;;6184414;23;20020;-85
2023/10/23 03:44:52;;;;;;;26.60;16.65;;;;;;;;;;6194772;23;20098;-85
2023/10/23 03:47:24;;;;;;;25.15;15.38;;;;;;;;;;6219837;23;20074;-85
2023/10/23 03:50:14;;;;;;;24.70;16.45;;;;;;;;;;6247105;23;20116;-85
2023/10/23 03:52:46;;;;;;;22.38;15.82;;;;;;;;;;6170935;23;20449;-84
2023/10/23 03:55:19;;;;;;;27.08;15.80;;;;;;;;;;6245545;23;20012;-85
2023/10/23 03:57:50;;;;;;;26.35;16.33;;;;;;;;;;6218881;23;20484;-85
2023/10/23 04:00:19;;;;;;;28.25;16.25;;;;;;;;;;6247077;23;20012;-84
2023/10/23 04:02:45;;;;;;;27.08;16.10;;;;;;;;;;6127868;23;20021;-85
2023/10/23 04:05:12;;;;;;;27.63;16.02;;;;;;;;;;6128861;23;20045;-84
2023/10/23 04:07:38;;;;;;;22.02;14.70;;;;;;;;;;6129162;23;20071;-84
2023/10/23 04:10:08;;;;;;;24.67;15.35;;;;;;;;;;6104772;23;20013;-84
2023/10/23 04:12:34;;;;;;;24.30;15.30;;;;;;;;;;6104060;23;20072;-84
2023/10/23 04:15:00;;;;;;;22.23;14.90;;;;;;;;;;6104145;23;20022;-85
2023/10/23 04:17:27;;;;;;;23.02;14.90;;;;;;;;;;6128713;23;20052;-85
2023/10/23 04:19:56;;;;;;;20.67;14.43;;;;;;;;;;6104895;23;20018;-84
2023/10/23 04:22:23;;;;;;;26.15;15.48;;;;;;;;;;6128979;23;20099;-84
2023/10/23 04:24:54;;;;;;;22.40;15.10;;;;;;;;;;6129405;23;20022;-84
2023/10/23 04:27:30;;;;;;;24.00;14.43;;;;;;;;;;6130773;23;20051;-85
2023/10/23 04:29:59;;;;;;;24.42;14.90;;;;;;;;;;6128364;23;20034;-84
2023/10/23 04:32:25;;;;;;;20.10;13.38;;;;;;;;;;6104706;23;20101;-84
2023/10/23 04:34:52;;;;;;;25.17;14.43;;;;;;;;;;6239334;23;20049;-85
2023/10/23 04:37:22;;;;;;;19.77;13.52;;;;;;;;;;6220811;23;20074;-85
2023/10/23 04:39:52;;;;;;;22.02;14.50;;;;;;;;;;6219794;23;20020;-85
2023/10/23 04:42:22;;;;;;;20.55;13.98;;;;;;;;;;6219866;23;20340;-85
2023/10/23 04:44:50;;;;;;;20.38;13.63;;;;;;;;;;6194290;23;20424;-85
2023/10/23 04:47:34;;;;;;;23.23;14.02;;;;;;;;;;6246872;23;20016;-85
2023/10/23 04:50:39;;;;;;;22.27;13.68;;;;;;;;;;6226775;23;20020;-84
2023/10/23 04:53:17;;;;;;;19.40;14.13;;;;;;;;;;6168886;23;20024;-84
2023/10/23 04:55:54;;;;;;;20.90;13.98;;;;;;;;;;6214767;23;20012;-84
2023/10/23 04:58:34;;;;;;;25.02;14.98;;;;;;;;;;6244550;23;20153;-85
2023/10/23 05:01:26;;;;;;;23.95;15.02;;;;;;;;;;6246510;23;20392;-84
2023/10/23 05:04:07;;;;;;;23.70;14.68;;;;;;;;;;6221728;23;20295;-84
2023/10/23 05:07:02;;;;;;;22.30;15.65;;;;;;;;;;6244082;23;20364;-84
2023/10/23 05:09:52;;;;;;;21.63;14.15;;;;;;;;;;6219114;23;20056;-84
2023/10/23 05:12:58;;;;;;;24.20;14.82;;;;;;;;;;6220055;23;20019;-85
2023/10/23 05:15:39;;;;;;;21.25;13.98;;;;;;;;;;6220926;23;20016;-85
2023/10/23 05:18:20;;;;;;;20.33;13.80;;;;;;;;;;6132372;23;20021;-84
2023/10/23 05:21:04;;;;;;;23.52;14.15;;;;;;;;;;6127972;23;20031;-85
2023/10/23 05:24:03;;;;;;;23.10;14.10;;;;;;;;;;6130391;23;20029;-84
2023/10/23 05:26:29;;;;;;;23.65;15.15;;;;;;;;;;6128351;23;20014;-84
2023/10/23 05:29:01;;;;;;;25.60;15.15;;;;;;;;;;6153081;23;20017;-84
2023/10/23 05:31:31;;;;;;;25.05;14.90;;;;;;;;;;6129198;23;20022;-84
2023/10/23 05:34:06;;;;;;;22.42;13.90;;;;;;;;;;6129815;23;20378;-84
2023/10/23 05:37:08;;;;;;;21.88;13.45;;;;;;;;;;6150104;23;20028;-86
2023/10/23 05:39:34;;;;;;;22.60;14.60;;;;;;;;;;6128223;23;20049;-85
2023/10/23 05:42:00;;;;;;;19.85;14.38;;;;;;;;;;6129027;23;20022;-84
2023/10/23 05:44:27;;;;;;;27.45;15.80;;;;;;;;;;6103141;23;20101;-85
2023/10/23 05:47:07;;;;;;;24.63;14.70;;;;;;;;;;6149457;23;20072;-84
2023/10/23 05:49:39;;;;;;;26.50;15.38;;;;;;;;;;6145561;23;20020;-84
2023/10/23 05:52:05;;;;;;;28.20;15.25;;;;;;;;;;6220345;23;20023;-84
2023/10/23 05:54:31;;;;;;;25.27;16.08;;;;;;;;;;6247117;23;20024;-84
2023/10/23 05:57:01;;;;;;;25.25;14.68;;;;;;;;;;6218190;23;20022;-85
2023/10/23 05:59:27;;;;;;;23.95;15.82;;;;;;;;;;6193948;23;20028;-84
2023/10/23 06:01:59;;;;;;;24.00;15.23;;;;;;;;;;6218720;23;20031;-84
2023/10/23 06:04:44;;;;;;;21.95;14.13;;;;;;;;;;6188636;23;20016;-84
2023/10/23 06:07:10;;;;;;;27.80;14.10;;;;;;;;;;6220102;23;20099;-85
2023/10/23 06:09:39;;;;;;;21.23;12.93;;;;;;;;;;6195747;23;20024;-84
2023/10/23 06:12:11;;;;;;;21.42;13.63;;;;;;;;;;6246876;23;20024;-84
2023/10/23 06:14:37;;;;;;;24.27;14.48;;;;;;;;;;6195054;23;20016;-84
2023/10/23 06:17:03;;;;;;;22.85;14.05;;;;;;;;;;6220439;23;20341;-84
2023/10/23 06:19:54;;;;;;;25.33;14.93;;;;;;;;;;6220009;23;20325;-84
2023/10/23 06:22:39;;;;;;;24.98;15.38;;;;;;;;;;6224996;23;20015;-84
2023/10/23 06:25:24;;;;;;;24.50;14.48;;;;;;;;;;6225245;23;20019;-84
2023/10/23 06:27:50;;;;;;;19.70;13.93;;;;;;;;;;6194915;23;20085;-83
2023/10/23 06:30:19;;;;;;;24.52;15.00;;;;;;;;;;6219614;23;20101;-84
2023/10/23 06:32:45;;;;;;;19.23;12.68;;;;;;;;;;6195258;23;20024;-84
2023/10/23 06:35:12;;;;;;;17.25;12.32;;;;;;;;;;6219774;23;20039;-84
2023/10/23 06:37:40;;;;;;;16.60;11.38;;;;;;;;;;6220345;23;20020;-84
2023/10/23 06:40:16;;;;;;;17.42;11.40;;;;;;;;;;6196515;23;20437;-84
2023/10/23 06:43:01;;;;;;;21.90;13.13;;;;;;;;;;6224847;23;20087;-84
2023/10/23 06:45:27;;;;;;;18.02;12.40;;;;;;;;;;6218963;23;20051;-84
2023/10/23 06:47:53;;;;;;;18.55;12.40;;;;;;;;;;6219791;23;20020;-84
2023/10/23 06:50:19;;;;;;;15.52;11.45;;;;;;;;;;6195955;23;20020;-84
2023/10/23 06:52:50;;;;;;;16.30;11.50;;;;;;;;;;6195591;23;20016;-84
2023/10/23 06:55:19;;;;;;;19.38;11.82;;;;;;;;;;6220615;23;20023;-84
2023/10/23 06:57:45;;;;;;;18.35;12.52;;;;;;;;;;6245214;23;20441;-84
2023/10/23 07:00:12;;;;;;;19.48;12.90;;;;;;;;;;6194952;23;20107;-84
2023/10/23 07:02:40;;;;;;;17.00;11.77;;;;;;;;;;6194842;23;20445;-84
2023/10/23 07:05:06;;;;;;;13.10;9.65;;;;;;;;;;6219334;23;20020;-84
2023/10/23 07:07:32;;;;;;;10.35;7.50;;;;;;;;;;6218969;23;20020;-85
2023/10/23 07:10:03;;;;;;;7.80;6.70;;;;;;;;;;6219109;23;20021;-85
2023/10/23 07:12:29;;;;;;;8.70;7.72;;;;;;;;;;6220943;23;20012;-84
2023/10/23 07:14:55;;;;;;;9.68;7.90;;;;;;;;;;6219070;23;20096;-85
2023/10/23 07:17:21;;;;;;;9.73;7.63;;;;;;;;;;6218738;23;20021;-85
2023/10/23 07:19:47;;;;;;;13.05;9.65;;;;;;;;;;6194085;23;20020;-83
2023/10/23 07:22:13;;;;;;;27.63;14.27;;;;;;;;;;6218918;23;20016;-85
2023/10/23 07:24:42;;;;;;;29.27;14.77;;;;;;;;;;6192584;23;20355;-88
2023/10/23 07:27:14;;;;;;;19.95;13.30;;;;;;;;;;6192686;23;20445;-88
2023/10/23 07:29:43;;;;;;;22.20;14.45;;;;;;;;;;6192827;23;20124;-86
2023/10/23 07:32:09;;;;;;;22.95;15.10;;;;;;;;;;6191604;23;20056;-86
2023/10/23 07:34:36;;;;;;;23.35;14.32;;;;;;;;;;6217949;23;20012;-85
2023/10/23 07:37:03;;;;;;;16.90;12.73;;;;;;;;;;6244758;23;20058;-85
2023/10/23 07:39:29;;;;;;;15.10;10.13;;;;;;;;;;6217948;23;20058;-85
2023/10/23 07:41:55;;;;;;;12.60;9.88;;;;;;;;;;6217439;23;20475;-85
2023/10/23 07:44:21;;;;;;;11.65;9.25;;;;;;;;;;6218595;23;20020;-85
2023/10/23 07:46:48;;;;;;;12.10;9.18;;;;;;;;;;6218150;23;20031;-85
2023/10/23 07:49:14;;;;;;;15.30;10.35;;;;;;;;;;6218678;23;20428;-85
2023/10/23 07:51:40;;;;;;;18.17;11.32;;;;;;;;;;6219797;23;20099;-85
2023/10/23 07:54:06;;;;;;;16.52;12.23;;;;;;;;;;6219805;23;20051;-85
2023/10/23 07:56:32;;;;;;;18.90;12.77;;;;;;;;;;6220105;23;20027;-85
2023/10/23 07:58:58;;;;;;;17.73;12.75;;;;;;;;;;6218976;23;20027;-85
2023/10/23 08:01:24;;;;;;;19.77;14.40;;;;;;;;;;6218276;23;20016;-85
2023/10/23 08:03:51;;;;;;;21.00;14.25;;;;;;;;;;6218963;23;20016;-85
2023/10/23 08:06:17;;;;;;;22.27;14.90;;;;;;;;;;6218871;23;20020;-85
2023/10/23 08:08:44;;;;;;;20.30;14.55;;;;;;;;;;6218827;23;20027;-85
2023/10/23 08:11:11;;;;;;;21.20;14.98;;;;;;;;;;6218851;23;20016;-85
2023/10/23 08:13:38;;;;;;;21.05;15.32;;;;;;;;;;6219319;23;20023;-85
2023/10/23 08:16:04;;;;;;;20.65;14.68;;;;;;;;;;6218637;23;20027;-85
2023/10/23 08:18:30;;;;;;;21.50;14.57;;;;;;;;;;6218943;23;20463;-85
2023/10/23 08:20:56;;;;;;;20.92;14.07;;;;;;;;;;6219342;23;20095;-85
2023/10/23 08:23:22;;;;;;;18.23;13.40;;;;;;;;;;6218731;23;20074;-85
2023/10/23 08:25:48;;;;;;;17.00;13.00;;;;;;;;;;6218350;23;20024;-85
2023/10/23 08:28:14;;;;;;;17.60;12.60;;;;;;;;;;6218457;23;20012;-85
2023/10/23 08:30:40;;;;;;;18.77;12.88;;;;;;;;;;6218938;23;20082;-85
2023/10/23 08:33:07;;;;;;;13.60;11.23;;;;;;;;;;6218796;23;20024;-85
2023/10/23 08:35:33;;;;;;;13.90;11.18;;;;;;;;;;6217536;23;20444;-85
2023/10/23 08:37:59;;;;;;;14.10;10.32;;;;;;;;;;6218496;23;20028;-85
2023/10/23 08:40:25;;;;;;;13.40;9.65;;;;;;;;;;6217309;23;20074;-85
2023/10/23 08:42:51;;;;;;;15.15;10.27;;;;;;;;;;6216146;23;20024;-85
2023/10/23 08:45:17;;;;;;;14.07;10.48;;;;;;;;;;6226679;23;20072;-85
2023/10/23 08:47:44;;;;;;;12.60;9.32;;;;;;;;;;6218489;23;20503;-85
2023/10/23 08:50:13;;;;;;;12.45;9.52;;;;;;;;;;6193850;23;20020;-85
2023/10/23 08:52:44;;;;;;;13.32;9.52;;;;;;;;;;6246197;23;20134;-86
2023/10/23 08:55:13;;;;;;;14.02;10.05;;;;;;;;;;6218574;23;20026;-86
2023/10/23 08:57:46;;;;;;;14.23;10.30;;;;;;;;;;6218879;23;20031;-85
2023/10/23 09:00:13;;;;;;;11.90;9.30;;;;;;;;;;6219129;23;20020;-86
2023/10/23 09:02:39;;;;;;;12.27;8.43;;;;;;;;;;6218766;23;20044;-87
2023/10/23 09:05:05;;;;;;;16.85;8.60;;;;;;;;;;6219108;23;20027;-87
2023/10/23 09:07:32;;;;;;;12.55;8.70;;;;;;;;;;6246166;23;20583;-90
2023/10/23 09:10:03;;;;;;;12.38;8.55;;;;;;;;;;6194944;23;20437;-90
2023/10/23 09:12:35;;;;;;;11.65;7.82;;;;;;;;;;6194538;23;20022;-92
2023/10/23 09:15:14;;;;;;;9.85;7.45;;;;;;;;;;6194666;23;20467;-91
2023/10/23 09:17:41;;;;;;;11.55;8.02;;;;;;;;;;6194979;23;20306;-88
2023/10/23 09:20:17;;;;;;;9.60;7.75;;;;;;;;;;6218849;23;20326;-88
2023/10/23 09:22:47;;;;;;;11.55;8.57;;;;;;;;;;6246241;23;20452;-88
2023/10/23 09:25:17;;;;;;;11.23;8.02;;;;;;;;;;6219442;23;20852;-88
2023/10/23 09:27:44;;;;;;;10.85;8.10;;;;;;;;;;6219243;23;20023;-88
2023/10/23 09:30:10;;;;;;;10.15;8.02;;;;;;;;;;6219240;23;20020;-88
2023/10/23 09:32:37;;;;;;;12.05;8.18;;;;;;;;;;6219090;23;20452;-88
2023/10/23 09:35:04;;;;;;;11.45;7.88;;;;;;;;;;6219022;23;20048;-88
2023/10/23 09:37:30;;;;;;;11.73;7.57;;;;;;;;;;6193807;23;20066;-88
2023/10/23 09:40:00;;;;;;;9.85;6.70;;;;;;;;;;6218972;23;20024;-88
2023/10/23 09:42:33;;;;;;;9.57;7.00;;;;;;;;;;6219297;23;20024;-88
2023/10/23 09:45:00;;;;;;;10.63;7.15;;;;;;;;;;6194087;23;20016;-88
2023/10/23 09:47:28;;;;;;;9.40;6.65;;;;;;;;;;6218842;23;20066;-88
2023/10/23 09:49:54;;;;;;;9.00;7.13;;;;;;;;;;6193921;23;20016;-88
2023/10/23 09:52:23;;;;;;;9.55;7.18;;;;;;;;;;6219016;23;20020;-88
2023/10/23 09:54:49;;;;;;;7.65;6.32;;;;;;;;;;6218924;23;20062;-88
2023/10/23 09:57:18;;;;;;;9.68;6.70;;;;;;;;;;6219874;23;20070;-89
2023/10/23 09:59:47;;;;;;;9.45;6.28;;;;;;;;;;6193970;23;20035;-88
2023/10/23 10:02:17;;;;;;;8.50;6.72;;;;;;;;;;6193866;23;20329;-88
2023/10/23 10:04:57;;;;;;;8.57;6.20;;;;;;;;;;6194102;23;20038;-88
2023/10/23 10:07:30;;;;;;;7.28;5.97;;;;;;;;;;6219843;23;20024;-90
2023/10/23 10:09:57;;;;;;;8.55;6.57;;;;;;;;;;6194318;23;20070;-89
2023/10/23 10:12:24;;;;;;;9.00;6.20;;;;;;;;;;6194677;23;20523;-88
2023/10/23 10:14:51;;;;;;;8.07;6.35;;;;;;;;;;6194392;23;20039;-88
2023/10/23 10:17:20;;;;;;;6.68;5.50;;;;;;;;;;6194058;23;20018;-88
2023/10/23 10:19:47;;;;;;;7.05;5.70;;;;;;;;;;6219807;23;20016;-88
2023/10/23 10:22:33;;;;;;;8.07;6.22;;;;;;;;;;6219265;23;20047;-88
2023/10/23 10:24:59;;;;;;;7.63;4.70;;;;;;;;;;6218872;23;20383;-88
2023/10/23 10:27:26;;;;;;;9.00;6.38;;;;;;;;;;6194625;23;20012;-88
2023/10/23 10:29:52;;;;;;;5.78;5.05;;;;;;;;;;6246068;23;20016;-89
2023/10/23 10:32:18;;;;;;;6.30;4.90;;;;;;;;;;6232982;23;20059;-87
2023/10/23 10:34:47;;;;;;;7.13;4.75;;;;;;;;;;6238963;23;20020;-87
2023/10/23 10:37:16;;;;;;;6.53;4.88;;;;;;;;;;6204634;23;20078;-88
2023/10/23 10:39:52;;;;;;;5.68;4.78;;;;;;;;;;6194745;23;20028;-87
2023/10/23 10:42:38;;;;;;;5.63;4.28;;;;;;;;;;6250458;23;20031;-88
2023/10/23 10:45:13;;;;;;;6.43;5.20;;;;;;;;;;6220879;23;20032;-88
2023/10/23 10:47:40;;;;;;;9.02;5.05;;;;;;;;;;6195935;23;20024;-88
2023/10/23 10:50:06;;;;;;;8.45;5.53;;;;;;;;;;6220374;23;20027;-88
2023/10/23 10:52:44;;;;;;;7.88;4.93;;;;;;;;;;6193951;23;20348;-88
2023/10/23 10:55:11;;;;;;;5.43;4.30;;;;;;;;;;6219860;23;20091;-88
2023/10/23 10:57:40;;;;;;;7.95;5.05;;;;;;;;;;6219622;23;20020;-88
2023/10/23 11:00:09;;;;;;;10.85;4.90;;;;;;;;;;6194430;23;20012;-88
2023/10/23 11:02:36;;;;;;;6.30;4.20;;;;;;;;;;6219067;23;20024;-88
2023/10/23 11:05:07;;;;;;;6.97;4.70;;;;;;;;;;6219294;23;20020;-88
2023/10/23 11:07:33;;;;;;;6.50;4.78;;;;;;;;;;6219381;23;20016;-88
2023/10/23 11:09:59;;;;;;;5.00;3.70;;;;;;;;;;6194994;23;20091;-88
2023/10/23 11:12:26;;;;;;;6.00;4.25;;;;;;;;;;6193705;23;20267;-88
2023/10/23 11:14:52;;;;;;;5.80;3.60;;;;;;;;;;6218851;23;20349;-88
2023/10/23 11:17:19;;;;;;;6.60;3.80;;;;;;;;;;6193728;23;20453;-88
2023/10/23 11:19:45;;;;;;;5.97;3.60;;;;;;;;;;6223833;23;20012;-88
2023/10/23 11:22:12;;;;;;;5.68;3.70;;;;;;;;;;6195525;23;20016;-88
2023/10/23 11:24:38;;;;;;;6.22;3.25;;;;;;;;;;6221172;23;20349;-88
2023/10/23 11:27:05;;;;;;;5.28;3.80;;;;;;;;;;6222058;23;20467;-88
2023/10/23 11:29:38;;;;;;;4.53;3.72;;;;;;;;;;6196462;23;20018;-88
2023/10/23 11:32:06;;;;;;;5.30;3.20;;;;;;;;;;6196321;23;20027;-87
2023/10/23 11:34:32;;;;;;;4.32;3.00;;;;;;;;;;6247931;23;20013;-88
2023/10/23 11:37:00;;;;;;;4.95;3.70;;;;;;;;;;6221526;23;20016;-88
2023/10/23 11:39:28;;;;;;;3.92;3.30;;;;;;;;;;6196473;23;20017;-89
2023/10/23 11:41:56;;;;;;;6.50;4.00;;;;;;;;;;6195453;23;20023;-88
2023/10/23 11:44:22;;;;;;;10.25;6.05;;;;;;;;;;6194989;23;20038;-87
2023/10/23 11:46:49;;;;;;;9.13;4.93;;;;;;;;;;6220382;23;20286;-88
2023/10/23 11:49:19;;;;;;;5.43;4.05;;;;;;;;;;6220376;23;20020;-87
2023/10/23 11:51:45;;;;;;;7.38;4.60;;;;;;;;;;6220823;23;20059;-87
2023/10/23 11:54:11;;;;;;;45.72;15.50;;;;;;;;;;6247385;23;20014;-86
2023/10/23 11:56:37;;;;;;;7.78;4.32;;;;;;;;;;6195519;23;20097;-87
2023/10/23 11:59:06;;;;;;;7.18;4.20;;;;;;;;;;6221271;23;20444;-88
2023/10/23 12:01:32;;;;;;;8.50;4.00;;;;;;;;;;6220883;23;20483;-88
2023/10/23 12:03:58;;;;;;;15.15;6.20;;;;;;;;;;6220667;23;20020;-88
2023/10/23 12:06:24;;;;;;;16.10;5.70;;;;;;;;;;6195813;23;20024;-87
2023/10/23 12:08:50;;;;;;;5.68;2.63;;;;;;;;;;6195929;23;20020;-87
2023/10/23 12:11:18;;;;;;;5.22;2.40;;;;;;;;;;6196162;23;20023;-89
2023/10/23 12:13:44;;;;;;;12.55;3.88;;;;;;;;;;6211608;23;20016;-86
2023/10/23 12:16:10;;;;;;;3.05;2.00;;;;;;;;;;6237732;23;20364;-87
2023/10/23 12:18:36;;;;;;;3.53;1.98;;;;;;;;;;6227990;23;20024;-88
2023/10/23 12:21:05;;;;;;;6.60;2.80;;;;;;;;;;6197597;23;20012;-87
2023/10/23 12:23:31;;;;;;;8.77;3.25;;;;;;;;;;6221397;23;20096;-86
2023/10/23 12:25:57;;;;;;;6.93;3.55;;;;;;;;;;6196191;23;20024;-88
2023/10/23 12:28:23;;;;;;;19.38;5.53;;;;;;;;;;6247871;23;20461;-89
2023/10/23 12:30:49;;;;;;;9.27;4.28;;;;;;;;;;6196383;23;20018;-88
2023/10/23 12:33:15;;;;;;;6.57;2.63;;;;;;;;;;6248526;23;20382;-88
2023/10/23 12:35:41;;;;;;;14.15;5.13;;;;;;;;;;6195628;23;20020;-88
2023/10/23 12:38:08;;;;;;;27.30;7.28;;;;;;;;;;6221074;23;20096;-88
2023/10/23 12:40:34;;;;;;;4.63;2.33;;;;;;;;;;6195780;23;20051;-88
2023/10/23 12:43:00;;;;;;;3.53;1.98;;;;;;;;;;6195122;23;20019;-88
2023/10/23 12:45:26;;;;;;;2.78;1.83;;;;;;;;;;6195342;23;20024;-89
2023/10/23 12:47:52;;;;;;;3.17;1.95;;;;;;;;;;6220453;23;20387;-88
2023/10/23 12:50:19;;;;;;;3.78;2.40;;;;;;;;;;6195313;23;20047;-88
2023/10/23 12:52:45;;;;;;;3.50;2.20;;;;;;;;;;6220778;23;20020;-88
2023/10/23 12:55:11;;;;;;;3.25;2.20;;;;;;;;;;6246987;23;20121;-88
2023/10/23 12:57:37;;;;;;;3.58;2.25;;;;;;;;;;6195433;23;20013;-89
2023/10/23 13:00:03;;;;;;;3.13;2.10;;;;;;;;;;6196121;23;20016;-89
2023/10/23 13:02:29;;;;;;;2.83;2.20;;;;;;;;;;6194882;23;20029;-89
2023/10/23 13:04:55;;;;;;;4.97;2.78;;;;;;;;;;6220013;23;20028;-89
2023/10/23 13:07:21;;;;;;;3.67;2.47;;;;;;;;;;6194555;23;20020;-89
2023/10/23 13:09:47;;;;;;;3.90;2.40;;;;;;;;;;6220130;23;20022;-89
2023/10/23 13:12:14;;;;;;;3.92;2.83;;;;;;;;;;6195082;23;20013;-90
2023/10/23 13:14:40;;;;;;;3.95;2.70;;;;;;;;;;6219421;23;20012;-89
2023/10/23 13:17:06;;;;;;;4.93;3.00;;;;;;;;;;6220148;23;20020;-89
2023/10/23 13:19:32;;;;;;;4.05;2.97;;;;;;;;;;6219700;23;20453;-89
2023/10/23 13:21:58;;;;;;;3.85;2.50;;;;;;;;;;6194938;23;20097;-89
2023/10/23 13:24:24;;;;;;;4.00;2.53;;;;;;;;;;6195169;23;20012;-89
2023/10/23 13:26:50;;;;;;;2.58;2.00;;;;;;;;;;6219722;23;20012;-89
2023/10/23 13:29:16;;;;;;;3.60;2.00;;;;;;;;;;6194825;23;20031;-89
2023/10/23 13:31:43;;;;;;;3.33;2.03;;;;;;;;;;6193975;23;20012;-89
2023/10/23 13:34:10;;;;;;;3.03;1.73;;;;;;;;;;6195542;23;20031;-90
2023/10/23 13:36:36;;;;;;;2.95;1.80;;;;;;;;;;6194174;23;20460;-89
2023/10/23 13:39:05;;;;;;;4.03;1.80;;;;;;;;;;6194284;23;20048;-89
2023/10/23 13:41:34;;;;;;;4.00;2.10;;;;;;;;;;6194627;23;20471;-90
2023/10/23 13:44:00;;;;;;;3.55;2.05;;;;;;;;;;6226374;23;20091;-91
2023/10/23 13:46:27;;;;;;;2.35;1.90;;;;;;;;;;6209002;23;20123;-91
2023/10/23 13:48:53;;;;;;;3.60;1.75;;;;;;;;;;6205410;23;20016;-90
2023/10/23 13:51:19;;;;;;;2.90;1.92;;;;;;;;;;6197016;23;20024;-90
2023/10/23 13:53:45;;;;;;;4.30;2.03;;;;;;;;;;6215926;23;20020;-88
2023/10/23 13:56:11;;;;;;;3.13;2.03;;;;;;;;;;6246709;23;20019;-89
2023/10/23 13:58:38;;;;;;;2.88;2.08;;;;;;;;;;6239869;23;20020;-88
2023/10/23 14:01:04;;;;;;;3.00;2.28;;;;;;;;;;6196558;23;20027;-88
2023/10/23 14:03:30;;;;;;;3.85;2.35;;;;;;;;;;6220394;23;20027;-88
2023/10/23 14:05:56;;;;;;;3.00;2.42;;;;;;;;;;6219242;23;20031;-90
2023/10/23 14:08:22;;;;;;;3.70;2.70;;;;;;;;;;6219353;23;20090;-89
2023/10/23 14:10:48;;;;;;;3.88;2.70;;;;;;;;;;6194661;23;20070;-88
2023/10/23 14:13:14;;;;;;;3.60;2.40;;;;;;;;;;6219401;23;20094;-89
2023/10/23 14:15:43;;;;;;;2.88;2.13;;;;;;;;;;6194757;23;20023;-89
2023/10/23 14:18:09;;;;;;;3.80;2.30;;;;;;;;;;6194314;23;20460;-88
2023/10/23 14:20:35;;;;;;;4.68;2.50;;;;;;;;;;6198106;23;20478;-89
2023/10/23 14:23:02;;;;;;;3.53;2.20;;;;;;;;;;6225866;23;20023;-89
2023/10/23 14:25:28;;;;;;;3.70;2.38;;;;;;;;;;6195514;23;20062;-89
2023/10/23 14:27:54;;;;;;;3.50;2.30;;;;;;;;;;6193579;23;20012;-89
2023/10/23 14:30:20;;;;;;;5.78;2.70;;;;;;;;;;6193589;23;20012;-89
2023/10/23 14:32:46;;;;;;;4.45;2.63;;;;;;;;;;6193419;23;20023;-89
2023/10/23 14:35:12;;;;;;;4.25;3.00;;;;;;;;;;6193645;23;20016;-89
2023/10/23 14:37:38;;;;;;;4.05;2.67;;;;;;;;;;6218500;23;20031;-89
2023/10/23 14:40:05;;;;;;;4.03;2.78;;;;;;;;;;6193736;23;20082;-89
2023/10/23 14:42:31;;;;;;;4.28;3.22;;;;;;;;;;6192859;23;20050;-89
2023/10/23 14:44:58;;;;;;;4.75;3.50;;;;;;;;;;6194273;23;20047;-89